sensor_id;sensor_type;location;lat;lon;timestamp;P1;P2;P0
82151;PMS5003;71721;47.904;-122.188;2023-08-20T00:00:09;27;26;
82151;PMS5003;71721;47.904;-122.188;2023-08-20T00:02:33;23;21;
82151;PMS5003;71721;47.904;-122.188;2023-08-20T00:04:59;22;22;
82151;PMS5003;71721;47.904;-122.188;2023-08-20T00:07:24;21;21;
82151;PMS5003;71721;47.904;-122.188;2023-08-20T00:09:50;22;22;
82151;PMS5003;71721;47.904;-122.188;2023-08-20T00:12:15;22;22;
82151;PMS5003;71721;47.904;-122.188;2023-08-20T00:15:13;21;21;
82151;PMS5003;71721;47.904;-122.188;2023-08-20T00:17:06;25;24;
82151;PMS5003;71721;47.904;-122.188;2023-08-20T00:19:37;22;22;
82151;PMS5003;71721;47.904;-122.188;2023-08-20T00:22:01;23;23;
82151;PMS5003;71721;47.904;-122.188;2023-08-20T00:24:22;23;23;
82151;PMS5003;71721;47.904;-122.188;2023-08-20T00:26:47;22;21;
82151;PMS5003;71721;47.904;-122.188;2023-08-20T00:29:12;21;21;
82151;PMS5003;71721;47.904;-122.188;2023-08-20T00:31:38;24;24;
82151;PMS5003;71721;47.904;-122.188;2023-08-20T00:34:03;22;21;
82151;PMS5003;71721;47.904;-122.188;2023-08-20T00:36:28;26;25;
82151;PMS5003;71721;47.904;-122.188;2023-08-20T00:38:54;29;28;
82151;PMS5003;71721;47.904;-122.188;2023-08-20T00:41:19;27;26;
82151;PMS5003;71721;47.904;-122.188;2023-08-20T00:43:46;24;24;
82151;PMS5003;71721;47.904;-122.188;2023-08-20T00:46:15;24;24;
82151;PMS5003;71721;47.904;-122.188;2023-08-20T00:48:36;23;23;
82151;PMS5003;71721;47.904;-122.188;2023-08-20T00:51:03;26;26;
82151;PMS5003;71721;47.904;-122.188;2023-08-20T00:53:27;25;25;
82151;PMS5003;71721;47.904;-122.188;2023-08-20T00:55:53;26;26;
82151;PMS5003;71721;47.904;-122.188;2023-08-20T00:58:17;29;28;
82151;PMS5003;71721;47.904;-122.188;2023-08-20T01:00:43;24;23;
82151;PMS5003;71721;47.904;-122.188;2023-08-20T01:03:08;32;31;
82151;PMS5003;71721;47.904;-122.188;2023-08-20T01:05:36;27;27;
82151;PMS5003;71721;47.904;-122.188;2023-08-20T01:08:02;25;24;
82151;PMS5003;71721;47.904;-122.188;2023-08-20T01:10:26;29;29;
82151;PMS5003;71721;47.904;-122.188;2023-08-20T01:12:50;26;25;
82151;PMS5003;71721;47.904;-122.188;2023-08-20T01:15:16;31;31;
82151;PMS5003;71721;47.904;-122.188;2023-08-20T01:17:40;25;25;
82151;PMS5003;71721;47.904;-122.188;2023-08-20T01:20:06;28;28;
82151;PMS5003;71721;47.904;-122.188;2023-08-20T01:23:09;27;26;
82151;PMS5003;71721;47.904;-122.188;2023-08-20T01:24:58;34;33;
82151;PMS5003;71721;47.904;-122.188;2023-08-20T01:27:28;31;28;
82151;PMS5003;71721;47.904;-122.188;2023-08-20T01:29:47;28;27;
82151;PMS5003;71721;47.904;-122.188;2023-08-20T01:32:13;31;30;
82151;PMS5003;71721;47.904;-122.188;2023-08-20T01:34:38;32;32;
82151;PMS5003;71721;47.904;-122.188;2023-08-20T01:37:04;33;33;
82151;PMS5003;71721;47.904;-122.188;2023-08-20T01:39:29;31;31;
82151;PMS5003;71721;47.904;-122.188;2023-08-20T01:41:54;30;29;
82151;PMS5003;71721;47.904;-122.188;2023-08-20T01:44:20;28;27;
82151;PMS5003;71721;47.904;-122.188;2023-08-20T01:46:45;30;29;
82151;PMS5003;71721;47.904;-122.188;2023-08-20T01:49:14;32;31;
82151;PMS5003;71721;47.904;-122.188;2023-08-20T01:51:37;32;32;
82151;PMS5003;71721;47.904;-122.188;2023-08-20T01:54:03;33;31;
82151;PMS5003;71721;47.904;-122.188;2023-08-20T01:56:28;29;28;
82151;PMS5003;71721;47.904;-122.188;2023-08-20T01:58:53;26;26;
82151;PMS5003;71721;47.904;-122.188;2023-08-20T02:01:19;29;29;
82151;PMS5003;71721;47.904;-122.188;2023-08-20T02:03:44;33;32;
82151;PMS5003;71721;47.904;-122.188;2023-08-20T02:06:09;30;30;
82151;PMS5003;71721;47.904;-122.188;2023-08-20T02:08:49;29;28;
82151;PMS5003;71721;47.904;-122.188;2023-08-20T02:11:01;31;28;
82151;PMS5003;71721;47.904;-122.188;2023-08-20T02:13:26;31;29;
82151;PMS5003;71721;47.904;-122.188;2023-08-20T02:15:57;30;28;
82151;PMS5003;71721;47.904;-122.188;2023-08-20T02:18:17;31;30;
82151;PMS5003;71721;47.904;-122.188;2023-08-20T02:20:43;26;26;
82151;PMS5003;71721;47.904;-122.188;2023-08-20T02:23:07;30;28;
82151;PMS5003;71721;47.904;-122.188;2023-08-20T02:25:34;28;28;
82151;PMS5003;71721;47.904;-122.188;2023-08-20T02:27:58;24;24;
82151;PMS5003;71721;47.904;-122.188;2023-08-20T02:30:23;24;23;
82151;PMS5003;71721;47.904;-122.188;2023-08-20T02:32:48;25;24;
82151;PMS5003;71721;47.904;-122.188;2023-08-20T02:35:13;31;29;
82151;PMS5003;71721;47.904;-122.188;2023-08-20T02:37:39;25;25;
82151;PMS5003;71721;47.904;-122.188;2023-08-20T02:40:04;25;24;
82151;PMS5003;71721;47.904;-122.188;2023-08-20T02:42:29;28;27;
82151;PMS5003;71721;47.904;-122.188;2023-08-20T02:44:55;25;25;
82151;PMS5003;71721;47.904;-122.188;2023-08-20T02:47:20;28;27;
82151;PMS5003;71721;47.904;-122.188;2023-08-20T02:49:46;28;27;
82151;PMS5003;71721;47.904;-122.188;2023-08-20T02:52:11;27;26;
82151;PMS5003;71721;47.904;-122.188;2023-08-20T02:54:36;28;26;
82151;PMS5003;71721;47.904;-122.188;2023-08-20T02:57:01;23;23;
82151;PMS5003;71721;47.904;-122.188;2023-08-20T02:59:27;29;28;
82151;PMS5003;71721;47.904;-122.188;2023-08-20T03:01:53;27;24;
82151;PMS5003;71721;47.904;-122.188;2023-08-20T03:04:18;27;27;
82151;PMS5003;71721;47.904;-122.188;2023-08-20T03:06:49;23;23;
82151;PMS5003;71721;47.904;-122.188;2023-08-20T03:09:08;27;26;
82151;PMS5003;71721;47.904;-122.188;2023-08-20T03:11:34;25;25;
82151;PMS5003;71721;47.904;-122.188;2023-08-20T03:13:59;25;23;
82151;PMS5003;71721;47.904;-122.188;2023-08-20T03:16:24;26;26;
82151;PMS5003;71721;47.904;-122.188;2023-08-20T03:18:49;28;28;
82151;PMS5003;71721;47.904;-122.188;2023-08-20T03:21:14;29;29;
82151;PMS5003;71721;47.904;-122.188;2023-08-20T03:23:40;31;30;
82151;PMS5003;71721;47.904;-122.188;2023-08-20T03:26:06;32;30;
82151;PMS5003;71721;47.904;-122.188;2023-08-20T03:28:31;34;34;
82151;PMS5003;71721;47.904;-122.188;2023-08-20T03:30:59;35;34;
82151;PMS5003;71721;47.904;-122.188;2023-08-20T03:33:22;31;30;
82151;PMS5003;71721;47.904;-122.188;2023-08-20T03:35:47;33;32;
82151;PMS5003;71721;47.904;-122.188;2023-08-20T03:38:12;32;30;
82151;PMS5003;71721;47.904;-122.188;2023-08-20T03:40:37;30;29;
82151;PMS5003;71721;47.904;-122.188;2023-08-20T03:43:03;35;34;
82151;PMS5003;71721;47.904;-122.188;2023-08-20T03:45:28;34;33;
82151;PMS5003;71721;47.904;-122.188;2023-08-20T03:47:54;36;36;
82151;PMS5003;71721;47.904;-122.188;2023-08-20T03:50:20;32;32;
82151;PMS5003;71721;47.904;-122.188;2023-08-20T03:52:45;39;35;
82151;PMS5003;71721;47.904;-122.188;2023-08-20T03:55:11;37;36;
82151;PMS5003;71721;47.904;-122.188;2023-08-20T03:57:36;34;34;
82151;PMS5003;71721;47.904;-122.188;2023-08-20T04:00:01;36;36;
82151;PMS5003;71721;47.904;-122.188;2023-08-20T04:02:27;35;35;
82151;PMS5003;71721;47.904;-122.188;2023-08-20T04:04:51;32;30;
82151;PMS5003;71721;47.904;-122.188;2023-08-20T04:07:17;32;30;
82151;PMS5003;71721;47.904;-122.188;2023-08-20T04:09:43;34;32;
82151;PMS5003;71721;47.904;-122.188;2023-08-20T04:12:08;32;30;
82151;PMS5003;71721;47.904;-122.188;2023-08-20T04:14:33;31;31;
82151;PMS5003;71721;47.904;-122.188;2023-08-20T04:16:59;31;29;
82151;PMS5003;71721;47.904;-122.188;2023-08-20T04:19:24;34;33;
82151;PMS5003;71721;47.904;-122.188;2023-08-20T04:21:49;32;31;
82151;PMS5003;71721;47.904;-122.188;2023-08-20T04:24:15;34;33;
82151;PMS5003;71721;47.904;-122.188;2023-08-20T04:26:40;36;33;
82151;PMS5003;71721;47.904;-122.188;2023-08-20T04:29:05;34;34;
82151;PMS5003;71721;47.904;-122.188;2023-08-20T04:31:31;36;33;
82151;PMS5003;71721;47.904;-122.188;2023-08-20T04:33:56;30;30;
82151;PMS5003;71721;47.904;-122.188;2023-08-20T04:36:22;33;31;
82151;PMS5003;71721;47.904;-122.188;2023-08-20T04:38:49;32;30;
82151;PMS5003;71721;47.904;-122.188;2023-08-20T04:41:13;29;29;
82151;PMS5003;71721;47.904;-122.188;2023-08-20T04:43:39;28;27;
82151;PMS5003;71721;47.904;-122.188;2023-08-20T04:46:05;29;28;
82151;PMS5003;71721;47.904;-122.188;2023-08-20T04:48:29;30;29;
82151;PMS5003;71721;47.904;-122.188;2023-08-20T04:50:55;31;31;
82151;PMS5003;71721;47.904;-122.188;2023-08-20T04:53:20;28;28;
82151;PMS5003;71721;47.904;-122.188;2023-08-20T04:55:46;32;29;
82151;PMS5003;71721;47.904;-122.188;2023-08-20T04:58:11;26;25;
82151;PMS5003;71721;47.904;-122.188;2023-08-20T05:00:37;30;30;
82151;PMS5003;71721;47.904;-122.188;2023-08-20T05:03:02;27;26;
82151;PMS5003;71721;47.904;-122.188;2023-08-20T05:05:28;31;31;
82151;PMS5003;71721;47.904;-122.188;2023-08-20T05:07:53;27;26;
82151;PMS5003;71721;47.904;-122.188;2023-08-20T05:10:19;28;28;
82151;PMS5003;71721;47.904;-122.188;2023-08-20T05:12:44;30;29;
82151;PMS5003;71721;47.904;-122.188;2023-08-20T05:15:10;33;32;
82151;PMS5003;71721;47.904;-122.188;2023-08-20T05:17:36;34;32;
82151;PMS5003;71721;47.904;-122.188;2023-08-20T05:20:01;32;30;
82151;PMS5003;71721;47.904;-122.188;2023-08-20T05:22:26;28;27;
82151;PMS5003;71721;47.904;-122.188;2023-08-20T05:24:51;29;29;
82151;PMS5003;71721;47.904;-122.188;2023-08-20T05:27:17;28;28;
82151;PMS5003;71721;47.904;-122.188;2023-08-20T05:29:43;31;29;
82151;PMS5003;71721;47.904;-122.188;2023-08-20T05:32:09;30;30;
82151;PMS5003;71721;47.904;-122.188;2023-08-20T05:34:34;30;30;
82151;PMS5003;71721;47.904;-122.188;2023-08-20T05:37:05;31;31;
82151;PMS5003;71721;47.904;-122.188;2023-08-20T05:39:25;30;30;
82151;PMS5003;71721;47.904;-122.188;2023-08-20T05:41:52;32;31;
82151;PMS5003;71721;47.904;-122.188;2023-08-20T05:44:16;32;31;
82151;PMS5003;71721;47.904;-122.188;2023-08-20T05:46:42;33;32;
82151;PMS5003;71721;47.904;-122.188;2023-08-20T05:49:07;29;28;
82151;PMS5003;71721;47.904;-122.188;2023-08-20T05:51:33;27;26;
82151;PMS5003;71721;47.904;-122.188;2023-08-20T05:53:58;29;27;
82151;PMS5003;71721;47.904;-122.188;2023-08-20T05:56:23;35;33;
82151;PMS5003;71721;47.904;-122.188;2023-08-20T05:58:48;34;30;
82151;PMS5003;71721;47.904;-122.188;2023-08-20T06:01:14;29;28;
82151;PMS5003;71721;47.904;-122.188;2023-08-20T06:03:39;32;31;
82151;PMS5003;71721;47.904;-122.188;2023-08-20T06:06:05;30;29;
82151;PMS5003;71721;47.904;-122.188;2023-08-20T06:08:34;30;30;
82151;PMS5003;71721;47.904;-122.188;2023-08-20T06:10:55;27;27;
82151;PMS5003;71721;47.904;-122.188;2023-08-20T06:13:20;29;28;
82151;PMS5003;71721;47.904;-122.188;2023-08-20T06:15:49;29;29;
82151;PMS5003;71721;47.904;-122.188;2023-08-20T06:18:11;28;28;
82151;PMS5003;71721;47.904;-122.188;2023-08-20T06:20:37;32;31;
82151;PMS5003;71721;47.904;-122.188;2023-08-20T06:23:02;29;29;
82151;PMS5003;71721;47.904;-122.188;2023-08-20T06:25:27;31;28;
82151;PMS5003;71721;47.904;-122.188;2023-08-20T06:27:54;27;26;
82151;PMS5003;71721;47.904;-122.188;2023-08-20T06:30:18;25;24;
82151;PMS5003;71721;47.904;-122.188;2023-08-20T06:32:44;32;29;
82151;PMS5003;71721;47.904;-122.188;2023-08-20T06:35:09;28;27;
82151;PMS5003;71721;47.904;-122.188;2023-08-20T06:37:34;27;27;
82151;PMS5003;71721;47.904;-122.188;2023-08-20T06:40:00;33;32;
82151;PMS5003;71721;47.904;-122.188;2023-08-20T06:42:25;32;32;
82151;PMS5003;71721;47.904;-122.188;2023-08-20T06:44:50;27;27;
82151;PMS5003;71721;47.904;-122.188;2023-08-20T06:47:16;29;28;
82151;PMS5003;71721;47.904;-122.188;2023-08-20T06:49:43;31;29;
82151;PMS5003;71721;47.904;-122.188;2023-08-20T06:52:07;31;30;
82151;PMS5003;71721;47.904;-122.188;2023-08-20T06:54:33;34;32;
82151;PMS5003;71721;47.904;-122.188;2023-08-20T06:56:59;33;31;
82151;PMS5003;71721;47.904;-122.188;2023-08-20T06:59:23;32;31;
82151;PMS5003;71721;47.904;-122.188;2023-08-20T07:01:55;34;32;
82151;PMS5003;71721;47.904;-122.188;2023-08-20T07:04:15;32;31;
82151;PMS5003;71721;47.904;-122.188;2023-08-20T07:06:40;34;34;
82151;PMS5003;71721;47.904;-122.188;2023-08-20T07:09:05;33;31;
82151;PMS5003;71721;47.904;-122.188;2023-08-20T07:11:32;32;31;
82151;PMS5003;71721;47.904;-122.188;2023-08-20T07:13:57;33;32;
82151;PMS5003;71721;47.904;-122.188;2023-08-20T07:16:22;32;32;
82151;PMS5003;71721;47.904;-122.188;2023-08-20T07:18:47;30;29;
82151;PMS5003;71721;47.904;-122.188;2023-08-20T07:21:13;36;34;
82151;PMS5003;71721;47.904;-122.188;2023-08-20T07:23:38;31;28;
82151;PMS5003;71721;47.904;-122.188;2023-08-20T07:26:04;33;30;
82151;PMS5003;71721;47.904;-122.188;2023-08-20T07:28:29;31;30;
82151;PMS5003;71721;47.904;-122.188;2023-08-20T07:30:55;30;29;
82151;PMS5003;71721;47.904;-122.188;2023-08-20T07:33:20;29;28;
82151;PMS5003;71721;47.904;-122.188;2023-08-20T07:35:46;31;30;
82151;PMS5003;71721;47.904;-122.188;2023-08-20T07:38:11;27;26;
82151;PMS5003;71721;47.904;-122.188;2023-08-20T07:40:37;31;29;
82151;PMS5003;71721;47.904;-122.188;2023-08-20T07:43:03;32;31;
82151;PMS5003;71721;47.904;-122.188;2023-08-20T07:45:28;30;29;
82151;PMS5003;71721;47.904;-122.188;2023-08-20T07:47:53;32;32;
82151;PMS5003;71721;47.904;-122.188;2023-08-20T07:50:18;29;29;
82151;PMS5003;71721;47.904;-122.188;2023-08-20T07:52:43;30;29;
82151;PMS5003;71721;47.904;-122.188;2023-08-20T07:55:08;32;31;
82151;PMS5003;71721;47.904;-122.188;2023-08-20T07:57:34;28;28;
82151;PMS5003;71721;47.904;-122.188;2023-08-20T07:59:59;28;27;
82151;PMS5003;71721;47.904;-122.188;2023-08-20T08:02:25;35;34;
82151;PMS5003;71721;47.904;-122.188;2023-08-20T08:04:50;34;32;
82151;PMS5003;71721;47.904;-122.188;2023-08-20T08:07:16;27;26;
82151;PMS5003;71721;47.904;-122.188;2023-08-20T08:09:41;29;28;
82151;PMS5003;71721;47.904;-122.188;2023-08-20T08:12:07;32;32;
82151;PMS5003;71721;47.904;-122.188;2023-08-20T08:14:32;29;29;
82151;PMS5003;71721;47.904;-122.188;2023-08-20T08:16:59;30;30;
82151;PMS5003;71721;47.904;-122.188;2023-08-20T08:19:23;30;30;
82151;PMS5003;71721;47.904;-122.188;2023-08-20T08:21:49;28;27;
82151;PMS5003;71721;47.904;-122.188;2023-08-20T08:24:14;28;28;
82151;PMS5003;71721;47.904;-122.188;2023-08-20T08:26:41;27;27;
82151;PMS5003;71721;47.904;-122.188;2023-08-20T08:29:06;35;34;
82151;PMS5003;71721;47.904;-122.188;2023-08-20T08:31:31;31;31;
82151;PMS5003;71721;47.904;-122.188;2023-08-20T08:33:56;32;31;
82151;PMS5003;71721;47.904;-122.188;2023-08-20T08:36:27;31;30;
82151;PMS5003;71721;47.904;-122.188;2023-08-20T08:38:47;26;26;
82151;PMS5003;71721;47.904;-122.188;2023-08-20T08:41:13;29;27;
82151;PMS5003;71721;47.904;-122.188;2023-08-20T08:43:37;28;28;
82151;PMS5003;71721;47.904;-122.188;2023-08-20T08:46:03;30;30;
82151;PMS5003;71721;47.904;-122.188;2023-08-20T08:48:29;27;26;
82151;PMS5003;71721;47.904;-122.188;2023-08-20T08:50:55;30;29;
82151;PMS5003;71721;47.904;-122.188;2023-08-20T08:53:20;35;31;
82151;PMS5003;71721;47.904;-122.188;2023-08-20T08:55:45;28;28;
82151;PMS5003;71721;47.904;-122.188;2023-08-20T08:58:12;28;25;
82151;PMS5003;71721;47.904;-122.188;2023-08-20T09:00:36;24;24;
82151;PMS5003;71721;47.904;-122.188;2023-08-20T09:03:01;24;24;
82151;PMS5003;71721;47.904;-122.188;2023-08-20T09:05:26;31;28;
82151;PMS5003;71721;47.904;-122.188;2023-08-20T09:07:55;25;25;
82151;PMS5003;71721;47.904;-122.188;2023-08-20T09:10:24;33;30;
82151;PMS5003;71721;47.904;-122.188;2023-08-20T09:12:44;28;27;
82151;PMS5003;71721;47.904;-122.188;2023-08-20T09:15:10;26;26;
82151;PMS5003;71721;47.904;-122.188;2023-08-20T09:17:33;28;28;
82151;PMS5003;71721;47.904;-122.188;2023-08-20T09:19:59;28;28;
82151;PMS5003;71721;47.904;-122.188;2023-08-20T09:22:26;27;27;
82151;PMS5003;71721;47.904;-122.188;2023-08-20T09:24:52;26;25;
82151;PMS5003;71721;47.904;-122.188;2023-08-20T09:27:20;23;21;
82151;PMS5003;71721;47.904;-122.188;2023-08-20T09:29:44;23;23;
82151;PMS5003;71721;47.904;-122.188;2023-08-20T09:32:06;26;26;
82151;PMS5003;71721;47.904;-122.188;2023-08-20T09:34:40;22;22;
82151;PMS5003;71721;47.904;-122.188;2023-08-20T09:36:57;26;25;
82151;PMS5003;71721;47.904;-122.188;2023-08-20T09:39:23;24;23;
82151;PMS5003;71721;47.904;-122.188;2023-08-20T09:41:48;26;24;
82151;PMS5003;71721;47.904;-122.188;2023-08-20T09:44:15;24;24;
82151;PMS5003;71721;47.904;-122.188;2023-08-20T09:46:40;24;23;
82151;PMS5003;71721;47.904;-122.188;2023-08-20T09:49:05;29;27;
82151;PMS5003;71721;47.904;-122.188;2023-08-20T09:51:31;26;26;
82151;PMS5003;71721;47.904;-122.188;2023-08-20T09:53:59;26;25;
82151;PMS5003;71721;47.904;-122.188;2023-08-20T09:56:24;21;21;
82151;PMS5003;71721;47.904;-122.188;2023-08-20T09:58:48;23;23;
82151;PMS5003;71721;47.904;-122.188;2023-08-20T10:01:12;22;22;
82151;PMS5003;71721;47.904;-122.188;2023-08-20T10:03:38;24;24;
82151;PMS5003;71721;47.904;-122.188;2023-08-20T10:06:03;23;23;
82151;PMS5003;71721;47.904;-122.188;2023-08-20T10:08:29;22;21;
82151;PMS5003;71721;47.904;-122.188;2023-08-20T10:10:55;26;24;
82151;PMS5003;71721;47.904;-122.188;2023-08-20T10:13:19;30;28;
82151;PMS5003;71721;47.904;-122.188;2023-08-20T10:15:44;25;25;
82151;PMS5003;71721;47.904;-122.188;2023-08-20T10:18:10;26;24;
82151;PMS5003;71721;47.904;-122.188;2023-08-20T10:20:36;26;24;
82151;PMS5003;71721;47.904;-122.188;2023-08-20T10:23:02;26;25;
82151;PMS5003;71721;47.904;-122.188;2023-08-20T10:25:26;25;24;
82151;PMS5003;71721;47.904;-122.188;2023-08-20T10:27:52;25;24;
82151;PMS5003;71721;47.904;-122.188;2023-08-20T10:30:23;23;21;
82151;PMS5003;71721;47.904;-122.188;2023-08-20T10:32:45;23;23;
82151;PMS5003;71721;47.904;-122.188;2023-08-20T10:35:07;24;23;
82151;PMS5003;71721;47.904;-122.188;2023-08-20T10:37:33;25;24;
82151;PMS5003;71721;47.904;-122.188;2023-08-20T10:39:59;23;23;
82151;PMS5003;71721;47.904;-122.188;2023-08-20T10:42:25;23;21;
82151;PMS5003;71721;47.904;-122.188;2023-08-20T10:45:05;24;24;
82151;PMS5003;71721;47.904;-122.188;2023-08-20T10:47:36;23;22;
82151;PMS5003;71721;47.904;-122.188;2023-08-20T10:49:45;21;21;
82151;PMS5003;71721;47.904;-122.188;2023-08-20T10:52:05;21;21;
82151;PMS5003;71721;47.904;-122.188;2023-08-20T10:54:30;26;24;
82151;PMS5003;71721;47.904;-122.188;2023-08-20T10:56:57;26;25;
82151;PMS5003;71721;47.904;-122.188;2023-08-20T10:59:21;23;21;
82151;PMS5003;71721;47.904;-122.188;2023-08-20T11:01:47;24;23;
82151;PMS5003;71721;47.904;-122.188;2023-08-20T11:04:11;21;21;
82151;PMS5003;71721;47.904;-122.188;2023-08-20T11:06:36;20;20;
82151;PMS5003;71721;47.904;-122.188;2023-08-20T11:09:02;21;21;
82151;PMS5003;71721;47.904;-122.188;2023-08-20T11:11:28;22;22;
82151;PMS5003;71721;47.904;-122.188;2023-08-20T11:13:54;20;19;
82151;PMS5003;71721;47.904;-122.188;2023-08-20T11:16:19;22;21;
82151;PMS5003;71721;47.904;-122.188;2023-08-20T11:18:45;21;21;
82151;PMS5003;71721;47.904;-122.188;2023-08-20T11:21:10;22;21;
82151;PMS5003;71721;47.904;-122.188;2023-08-20T11:23:36;23;23;
82151;PMS5003;71721;47.904;-122.188;2023-08-20T11:26:01;19;19;
82151;PMS5003;71721;47.904;-122.188;2023-08-20T11:28:27;24;24;
82151;PMS5003;71721;47.904;-122.188;2023-08-20T11:30:51;19;19;
82151;PMS5003;71721;47.904;-122.188;2023-08-20T11:33:17;24;24;
82151;PMS5003;71721;47.904;-122.188;2023-08-20T11:35:42;21;21;
82151;PMS5003;71721;47.904;-122.188;2023-08-20T11:38:09;23;23;
82151;PMS5003;71721;47.904;-122.188;2023-08-20T11:40:33;19;19;
82151;PMS5003;71721;47.904;-122.188;2023-08-20T11:42:59;23;22;
82151;PMS5003;71721;47.904;-122.188;2023-08-20T11:45:25;22;22;
82151;PMS5003;71721;47.904;-122.188;2023-08-20T11:47:50;22;22;
82151;PMS5003;71721;47.904;-122.188;2023-08-20T11:50:19;20;20;
82151;PMS5003;71721;47.904;-122.188;2023-08-20T11:52:40;21;20;
82151;PMS5003;71721;47.904;-122.188;2023-08-20T11:55:06;24;24;
82151;PMS5003;71721;47.904;-122.188;2023-08-20T11:57:31;28;27;
82151;PMS5003;71721;47.904;-122.188;2023-08-20T12:00:00;26;25;
82151;PMS5003;71721;47.904;-122.188;2023-08-20T12:02:25;24;23;
82151;PMS5003;71721;47.904;-122.188;2023-08-20T12:04:50;27;25;
82151;PMS5003;71721;47.904;-122.188;2023-08-20T12:07:13;27;27;
82151;PMS5003;71721;47.904;-122.188;2023-08-20T12:09:38;25;25;
82151;PMS5003;71721;47.904;-122.188;2023-08-20T12:12:05;25;25;
82151;PMS5003;71721;47.904;-122.188;2023-08-20T12:14:29;27;26;
82151;PMS5003;71721;47.904;-122.188;2023-08-20T12:16:54;28;28;
82151;PMS5003;71721;47.904;-122.188;2023-08-20T12:19:20;29;29;
82151;PMS5003;71721;47.904;-122.188;2023-08-20T12:21:46;31;28;
82151;PMS5003;71721;47.904;-122.188;2023-08-20T12:24:11;31;29;
82151;PMS5003;71721;47.904;-122.188;2023-08-20T12:26:36;28;28;
82151;PMS5003;71721;47.904;-122.188;2023-08-20T12:29:06;31;29;
82151;PMS5003;71721;47.904;-122.188;2023-08-20T12:31:27;30;29;
82151;PMS5003;71721;47.904;-122.188;2023-08-20T12:33:58;28;27;
82151;PMS5003;71721;47.904;-122.188;2023-08-20T12:36:18;32;32;
82151;PMS5003;71721;47.904;-122.188;2023-08-20T12:38:44;28;26;
82151;PMS5003;71721;47.904;-122.188;2023-08-20T12:41:09;27;27;
82151;PMS5003;71721;47.904;-122.188;2023-08-20T12:43:35;33;32;
82151;PMS5003;71721;47.904;-122.188;2023-08-20T12:46:01;25;25;
82151;PMS5003;71721;47.904;-122.188;2023-08-20T12:48:26;27;26;
82151;PMS5003;71721;47.904;-122.188;2023-08-20T12:50:51;25;25;
82151;PMS5003;71721;47.904;-122.188;2023-08-20T12:53:17;29;28;
82151;PMS5003;71721;47.904;-122.188;2023-08-20T12:55:43;29;29;
82151;PMS5003;71721;47.904;-122.188;2023-08-20T12:58:08;31;30;
82151;PMS5003;71721;47.904;-122.188;2023-08-20T13:00:35;28;28;
82151;PMS5003;71721;47.904;-122.188;2023-08-20T13:03:00;25;25;
82151;PMS5003;71721;47.904;-122.188;2023-08-20T13:05:31;26;24;
82151;PMS5003;71721;47.904;-122.188;2023-08-20T13:07:51;31;29;
82151;PMS5003;71721;47.904;-122.188;2023-08-20T13:10:17;33;32;
82151;PMS5003;71721;47.904;-122.188;2023-08-20T13:12:42;26;24;
82151;PMS5003;71721;47.904;-122.188;2023-08-20T13:15:08;31;28;
82151;PMS5003;71721;47.904;-122.188;2023-08-20T13:17:33;29;28;
82151;PMS5003;71721;47.904;-122.188;2023-08-20T13:19:58;27;27;
82151;PMS5003;71721;47.904;-122.188;2023-08-20T13:22:24;29;29;
82151;PMS5003;71721;47.904;-122.188;2023-08-20T13:24:49;30;28;
82151;PMS5003;71721;47.904;-122.188;2023-08-20T13:27:14;25;23;
82151;PMS5003;71721;47.904;-122.188;2023-08-20T13:29:40;25;24;
82151;PMS5003;71721;47.904;-122.188;2023-08-20T13:32:06;27;25;
82151;PMS5003;71721;47.904;-122.188;2023-08-20T13:34:31;29;28;
82151;PMS5003;71721;47.904;-122.188;2023-08-20T13:36:57;30;28;
82151;PMS5003;71721;47.904;-122.188;2023-08-20T13:39:22;29;28;
82151;PMS5003;71721;47.904;-122.188;2023-08-20T13:41:49;26;25;
82151;PMS5003;71721;47.904;-122.188;2023-08-20T13:44:13;29;29;
82151;PMS5003;71721;47.904;-122.188;2023-08-20T13:46:39;30;28;
82151;PMS5003;71721;47.904;-122.188;2023-08-20T13:49:04;30;28;
82151;PMS5003;71721;47.904;-122.188;2023-08-20T13:51:29;29;28;
82151;PMS5003;71721;47.904;-122.188;2023-08-20T13:53:55;30;28;
82151;PMS5003;71721;47.904;-122.188;2023-08-20T13:56:21;32;30;
82151;PMS5003;71721;47.904;-122.188;2023-08-20T13:58:47;33;31;
82151;PMS5003;71721;47.904;-122.188;2023-08-20T14:01:12;35;34;
82151;PMS5003;71721;47.904;-122.188;2023-08-20T14:03:37;28;28;
82151;PMS5003;71721;47.904;-122.188;2023-08-20T14:06:04;31;30;
82151;PMS5003;71721;47.904;-122.188;2023-08-20T14:08:29;30;28;
82151;PMS5003;71721;47.904;-122.188;2023-08-20T14:10:54;29;28;
82151;PMS5003;71721;47.904;-122.188;2023-08-20T14:13:19;35;30;
82151;PMS5003;71721;47.904;-122.188;2023-08-20T14:15:45;32;30;
82151;PMS5003;71721;47.904;-122.188;2023-08-20T14:18:10;28;28;
82151;PMS5003;71721;47.904;-122.188;2023-08-20T14:20:36;33;33;
82151;PMS5003;71721;47.904;-122.188;2023-08-20T14:23:01;32;30;
82151;PMS5003;71721;47.904;-122.188;2023-08-20T14:25:27;32;32;
82151;PMS5003;71721;47.904;-122.188;2023-08-20T14:27:53;33;29;
82151;PMS5003;71721;47.904;-122.188;2023-08-20T14:30:18;29;29;
82151;PMS5003;71721;47.904;-122.188;2023-08-20T14:32:43;33;32;
82151;PMS5003;71721;47.904;-122.188;2023-08-20T14:35:09;36;33;
82151;PMS5003;71721;47.904;-122.188;2023-08-20T14:37:34;34;34;
82151;PMS5003;71721;47.904;-122.188;2023-08-20T14:40:00;35;34;
82151;PMS5003;71721;47.904;-122.188;2023-08-20T14:42:26;34;32;
82151;PMS5003;71721;47.904;-122.188;2023-08-20T14:44:51;34;32;
82151;PMS5003;71721;47.904;-122.188;2023-08-20T14:47:22;31;30;
82151;PMS5003;71721;47.904;-122.188;2023-08-20T14:49:44;37;35;
82151;PMS5003;71721;47.904;-122.188;2023-08-20T14:52:07;32;31;
82151;PMS5003;71721;47.904;-122.188;2023-08-20T14:54:34;34;32;
82151;PMS5003;71721;47.904;-122.188;2023-08-20T14:56:58;36;32;
82151;PMS5003;71721;47.904;-122.188;2023-08-20T14:59:24;36;36;
82151;PMS5003;71721;47.904;-122.188;2023-08-20T15:01:49;29;29;
82151;PMS5003;71721;47.904;-122.188;2023-08-20T15:04:16;31;31;
82151;PMS5003;71721;47.904;-122.188;2023-08-20T15:06:41;36;33;
82151;PMS5003;71721;47.904;-122.188;2023-08-20T15:09:06;35;34;
82151;PMS5003;71721;47.904;-122.188;2023-08-20T15:11:37;34;33;
82151;PMS5003;71721;47.904;-122.188;2023-08-20T15:13:58;35;34;
82151;PMS5003;71721;47.904;-122.188;2023-08-20T15:16:23;34;34;
82151;PMS5003;71721;47.904;-122.188;2023-08-20T15:18:49;36;35;